MMDO

Details ICAO MMDO (DGO)
Name DURANGO INTL
Region Mexico
Timezone America/Monterrey (UTC-5.0)
Plans Departing 27
Arriving 30
Stats Elevation 6,104 ft / 1,860 m (AMSL)
Location 24.124193° -104.528013°
Runways 1
Magnetic Variation 6.762° E
Sunrise 2018-05-20 12:14:34 UTC / 2018-05-20 07:14:34 Local
Sunset 2018-05-21 01:37:36 UTC / 2018-05-20 20:37:36 Local
Advertisement - Login to hide

Runways

ID Width Length Bearing (true) Bearing (mag) Surface Threshold Offset Overrun Length
03 148 ft / 45 m 9,552 ft / 2,911 m 38.10° 31.34° Asphalt 0 ft / 0 m 197 ft / 60 m
21 148 ft / 45 m 9,552 ft / 2,911 m 218.10° 211.34° Asphalt 0 ft / 0 m 197 ft / 60 m

Map

Weather


0- 5 10 15 20 25 30 35+ Temperature / ° C

Clouds and Precipitation
Forecast for 2018-05-20 18:00 UTC. Updated an hour ago

Ground ~20,000 ft ~40,000 ft Winds

METAR

MMDO 201548Z 00000KT 14SM SKC 22/M04 A3020

TAF

Not found

Frequencies

Recorded 132.10 MHz ATIS
Tower 118.10 MHz TWR
Warning: Do not use this data for real-world aviation or navigation. No guarantee of current accuracy is given.